Bemidji, Minnesota
Current Conditions -  °F | °C
As of 3:33 PM on Thursday 23 Oct 2014 (Local Time) from KBJI Reporting Station
Clear Clear  
Wind Chill: 67°   Ceiling: Unl
Heat Index: 67°   Visibility: 10mi
Dew Point: 35°   Wind: 13mph
Humidity: 31%   Direction: 270°W
Pressure: 29.87"   Gusts: 17mph
Location:  47.47°N, 94.88°W
Report Text: KBJI 232033Z AUTO 27011G15KT 10SM CLR 19/02 A2987 RMK AO2 T01920015
Loading
Personal Weather Stations






























Interactive Weather Map
Tropical Storm Tracking
New forecast layout! Learn more

10-Day Weather Forecast

Advertisements
Track Severe Weather on mobile